Weather at Negril Airport

Public forecast

Using degrees Celsius for public forecast. Weather courtesy of forecast.io.

Closest aviation weather report (METAR) to Negril Airport

Closest report is Sangster International Airport, 25.7 nm (47.7 km) ENE. Retrieved 2021/05/16 22:00 UTC (34 minutes ago):

MKJS 162200Z 06012KT 9999 FEW022 29/24 Q1013

Closest aviation forecast (TAF) to Negril Airport

Closest forecast is Sangster International Airport, 25.7 nm (47.7 km) ENE. Retrieved 2021/05/16 18:15 UTC (4 hours ago):

TAF MKJS 161715Z 1618/1718 06015KT 9999 FEW022 PROB30 TEMPO 1619/1624 SHRA BKN018 FEW020CB BECMG 1702/1704 15005KT BECMG 1715/1717 07014KT